Time;durP1;ratioP1;P1;durP2;ratioP2;P2;SDS_P1;SDS_P2;PMS_P1;PMS_P2;Temp;Humidity;BMP_temperature;BMP_pressure;BME280_temperature;BME280_humidity;BME280_pressure;Samples;Min_cycle;Max_cycle;Signal;HPM_P1;HPM_P2
2021/03/18 00:01:35;;;;;;;0.27;0.27;;;;;;;17.89;27.26;100997.97;5017013;28;20504;-65
2021/03/18 00:04:02;;;;;;;0.77;0.40;;;;;;;17.88;27.05;100978.50;5015796;28;20483;-65
2021/03/18 00:06:28;;;;;;;0.33;0.33;;;;;;;17.88;27.29;101009.56;5013223;28;20510;-63
2021/03/18 00:08:54;;;;;;;0.73;0.40;;;;;;;17.81;27.29;100993.09;5021284;28;20470;-66
2021/03/18 00:11:23;;;;;;;1.80;0.70;;;;;;;17.69;27.49;100996.41;5012884;28;20070;-66
2021/03/18 00:13:49;;;;;;;0.40;0.40;;;;;;;17.72;27.71;100998.59;5021811;28;20088;-65
2021/03/18 00:16:17;;;;;;;2.13;1.00;;;;;;;17.90;27.52;101005.28;5021303;28;20479;-65
2021/03/18 00:18:52;;;;;;;1.23;0.80;;;;;;;17.83;27.61;100989.94;5024206;28;20102;-67
2021/03/18 00:21:19;;;;;;;0.50;0.50;;;;;;;17.91;27.37;101000.47;5018018;28;20073;-64
2021/03/18 00:23:47;;;;;;;0.30;0.30;;;;;;;17.68;27.87;100988.28;5014034;28;20413;-66
2021/03/18 00:26:14;;;;;;;0.73;0.60;;;;;;;17.70;27.92;100989.59;5023201;28;20598;-69
2021/03/18 00:28:41;;;;;;;1.40;0.77;;;;;;;17.59;27.91;100976.06;5015896;28;20124;-69
2021/03/18 00:31:07;;;;;;;1.67;0.70;;;;;;;17.68;27.86;100991.94;5022450;28;20062;-67
2021/03/18 00:33:35;;;;;;;1.17;0.63;;;;;;;17.53;28.08;100973.31;5020964;28;20045;-70
2021/03/18 00:36:01;;;;;;;2.73;0.67;;;;;;;17.81;27.65;100989.41;5014113;28;20049;-69
2021/03/18 00:38:28;;;;;;;0.97;0.67;;;;;;;17.76;27.59;101008.16;5015769;28;20138;-69
2021/03/18 00:41:04;;;;;;;0.40;0.40;;;;;;;17.69;28.19;101007.72;5018527;28;20182;-65
2021/03/18 00:43:31;;;;;;;0.43;0.40;;;;;;;17.74;28.05;100992.63;5018046;28;20558;-63
2021/03/18 00:45:57;;;;;;;0.50;0.30;;;;;;;17.70;27.82;100992.44;5019631;28;20045;-63
2021/03/18 00:48:24;;;;;;;0.60;0.50;;;;;;;17.43;28.11;100958.63;5016419;28;20451;-68
2021/03/18 00:50:54;;;;;;;0.60;0.60;;;;;;;17.53;28.11;100961.22;5023149;28;20073;-72
2021/03/18 00:53:33;;;;;;;0.43;0.40;;;;;;;17.60;28.15;100984.19;5014869;28;20081;-70
2021/03/18 00:56:01;;;;;;;1.67;0.73;;;;;;;17.54;28.39;100982.66;5008309;28;20054;-68
2021/03/18 00:58:28;;;;;;;0.93;0.60;;;;;;;17.43;28.38;100955.78;5013921;28;20049;-67
2021/03/18 01:00:57;;;;;;;1.10;0.83;;;;;;;17.41;28.49;100980.69;5016923;28;20046;-70
2021/03/18 01:03:29;;;;;;;0.85;0.55;;;;;;;17.34;28.83;100983.13;5018834;28;20486;-71
2021/03/18 01:05:56;;;;;;;0.47;0.43;;;;;;;17.34;28.75;100991.59;5022082;28;20144;-66
2021/03/18 01:08:26;;;;;;;0.53;0.50;;;;;;;17.25;28.98;100977.38;5016849;28;20041;-65
2021/03/18 01:10:56;;;;;;;0.77;0.60;;;;;;;17.09;29.25;100988.13;5014645;28;20414;-65
2021/03/18 01:13:23;;;;;;;0.63;0.50;;;;;;;17.16;29.14;100994.22;5014154;28;20060;-66
2021/03/18 01:15:53;;;;;;;0.67;0.67;;;;;;;17.21;28.98;100993.25;5021470;28;20143;-66
2021/03/18 01:18:22;;;;;;;0.85;0.63;;;;;;;17.17;29.04;100989.41;5018506;28;20091;-67
2021/03/18 01:20:49;;;;;;;1.50;1.23;;;;;;;17.28;29.09;101007.78;5012578;28;20073;-64
2021/03/18 01:23:15;;;;;;;0.53;0.30;;;;;;;17.02;29.22;100984.88;5016098;28;20052;-66
2021/03/18 01:25:42;;;;;;;0.60;0.50;;;;;;;17.01;29.38;100989.72;5020512;28;20435;-64
2021/03/18 01:28:10;;;;;;;0.60;0.60;;;;;;;17.04;29.28;100976.97;5016849;28;20053;-67
2021/03/18 01:30:50;;;;;;;2.20;0.80;;;;;;;17.21;29.37;100996.91;5014310;28;20052;-67
2021/03/18 01:33:16;;;;;;;0.50;0.50;;;;;;;17.16;29.16;100997.03;5015489;28;20163;-66
2021/03/18 01:35:42;;;;;;;3.03;0.77;;;;;;;17.12;29.25;101001.63;5017584;28;20074;-65
2021/03/18 01:38:09;;;;;;;2.13;0.70;;;;;;;17.18;29.14;100989.06;5011633;28;20042;-67
2021/03/18 01:40:35;;;;;;;1.43;0.80;;;;;;;17.08;29.08;100978.00;5017455;28;20433;-68
2021/03/18 01:43:02;;;;;;;0.87;0.60;;;;;;;17.16;29.24;101002.69;5015286;28;20046;-64
2021/03/18 01:45:28;;;;;;;0.73;0.60;;;;;;;17.15;29.29;100998.16;5015490;28;20063;-67
2021/03/18 01:47:59;;;;;;;1.63;0.83;;;;;;;16.84;29.26;100957.63;5017318;28;20395;-66
2021/03/18 01:50:30;;;;;;;1.97;0.90;;;;;;;17.11;29.37;101005.59;5015968;28;20054;-67
2021/03/18 01:52:57;;;;;;;1.02;0.80;;;;;;;17.11;29.50;101008.41;5015309;28;20145;-68
2021/03/18 01:55:29;;;;;;;0.83;0.70;;;;;;;17.08;29.50;101011.03;5015321;28;20064;-68
2021/03/18 01:57:56;;;;;;;2.07;0.80;;;;;;;17.09;29.44;101013.53;5021053;28;20464;-70
2021/03/18 02:00:25;;;;;;;1.57;0.80;;;;;;;17.09;29.37;101019.16;5019298;28;20054;-68
2021/03/18 02:02:56;;;;;;;2.20;0.80;;;;;;;17.13;29.61;101022.19;5022021;28;20048;-69
2021/03/18 02:05:25;;;;;;;2.87;0.80;;;;;;;17.13;29.52;101030.66;5017823;28;20045;-67
2021/03/18 02:07:53;;;;;;;1.10;0.60;;;;;;;17.05;29.29;101004.84;5015150;28;20143;-70
2021/03/18 02:10:25;;;;;;;1.00;0.70;;;;;;;16.96;29.38;100994.63;5015531;28;20140;-69
2021/03/18 02:12:52;;;;;;;1.20;0.70;;;;;;;17.06;29.41;101019.81;5017435;28;20057;-72
2021/03/18 02:15:22;;;;;;;1.90;0.70;;;;;;;16.94;29.43;100991.28;5020920;28;20057;-80
2021/03/18 02:17:58;;;;;;;2.60;0.90;;;;;;;16.98;29.44;101007.25;5017977;28;20046;-74
2021/03/18 02:20:43;;;;;;;1.20;0.67;;;;;;;17.02;29.37;101004.63;5017590;28;20055;-67
2021/03/18 02:23:37;;;;;;;1.90;0.73;;;;;;;16.96;29.41;100998.28;5009722;28;20041;-63
2021/03/18 02:26:18;;;;;;;2.73;0.70;;;;;;;17.00;29.35;100993.69;5011445;28;20149;-65
2021/03/18 02:29:15;;;;;;;0.60;0.60;;;;;;;17.01;29.27;101000.16;5015858;28;20041;-68
2021/03/18 02:32:03;;;;;;;1.30;0.87;;;;;;;16.96;29.52;101005.91;5015800;28;20388;-69
2021/03/18 02:34:57;;;;;;;1.43;0.60;;;;;;;16.85;29.45;101004.44;5022051;28;20202;-70
2021/03/18 02:37:29;;;;;;;0.83;0.60;;;;;;;16.64;29.74;100982.22;5014416;28;20050;-69
2021/03/18 02:40:13;;;;;;;1.17;0.67;;;;;;;16.70;29.44;100988.63;4998754;28;20104;-70
2021/03/18 02:42:41;;;;;;;1.13;0.60;;;;;;;16.84;29.49;101011.22;5013276;28;20475;-65
2021/03/18 02:45:11;;;;;;;0.53;0.47;;;;;;;16.75;29.43;100992.22;5017611;28;20195;-65
2021/03/18 02:47:39;;;;;;;1.45;0.55;;;;;;;16.72;29.39;100992.81;5015478;28;20038;-66
2021/03/18 02:50:08;;;;;;;1.67;0.80;;;;;;;16.75;29.41;100997.00;5022225;28;20042;-65
2021/03/18 02:52:40;;;;;;;1.25;0.70;;;;;;;16.57;29.61;100971.34;5022706;28;20049;-66
2021/03/18 02:55:08;;;;;;;1.43;0.60;;;;;;;16.56;29.38;100977.31;5025961;28;20061;-67
2021/03/18 02:57:37;;;;;;;1.40;0.73;;;;;;;16.66;29.34;100999.69;5016169;28;20053;-67
2021/03/18 03:00:09;;;;;;;0.93;0.70;;;;;;;16.65;29.23;100998.03;5022027;28;20042;-63
2021/03/18 03:02:39;;;;;;;2.20;0.77;;;;;;;16.60;29.11;100978.34;5020743;28;20045;-65
2021/03/18 03:05:09;;;;;;;0.77;0.67;;;;;;;16.63;29.07;100994.66;5020659;28;20495;-65
2021/03/18 03:07:37;;;;;;;1.08;0.55;;;;;;;16.49;29.02;100989.00;5022964;28;20128;-63
2021/03/18 03:10:07;;;;;;;1.43;0.80;;;;;;;16.56;28.98;100994.22;5016889;28;20547;-63
2021/03/18 03:12:35;;;;;;;2.30;0.80;;;;;;;16.50;28.76;100985.00;5025257;28;20045;-62
2021/03/18 03:15:04;;;;;;;1.50;0.60;;;;;;;16.50;28.80;100989.81;5019389;28;20437;-64
2021/03/18 03:17:30;;;;;;;1.17;0.88;;;;;;;16.44;28.75;100991.88;5019998;28;20538;-64
2021/03/18 03:19:59;;;;;;;1.10;0.70;;;;;;;16.48;28.65;101004.25;5023766;28;20439;-64
2021/03/18 03:22:28;;;;;;;1.80;0.87;;;;;;;16.46;28.59;101000.88;5018909;28;20042;-63
2021/03/18 03:24:58;;;;;;;0.90;0.60;;;;;;;16.39;28.63;100988.34;5009813;28;20044;-63
2021/03/18 03:27:25;;;;;;;;;;;;;;;16.45;28.70;100999.22;5022312;28;20096;-64
2021/03/18 03:29:51;;;;;;;1.73;0.80;;;;;;;16.44;28.67;101003.16;5018607;28;19925;-65
2021/03/18 03:32:18;;;;;;;0.87;0.67;;;;;;;16.36;28.65;100989.78;5020418;28;20379;-64
2021/03/18 03:34:44;;;;;;;0.97;0.63;;;;;;;16.37;28.61;100996.25;5018086;28;20516;-65
2021/03/18 03:37:11;;;;;;;0.97;0.77;;;;;;;16.37;28.68;101001.91;5017501;28;20068;-65
2021/03/18 03:39:38;;;;;;;0.90;0.70;;;;;;;16.30;28.68;100993.84;5026612;28;20166;-63
2021/03/18 03:42:10;;;;;;;0.83;0.57;;;;;;;16.11;28.78;100977.00;5020366;28;20037;-63
2021/03/18 03:44:38;;;;;;;0.30;0.30;;;;;;;16.04;28.62;100987.81;5020702;28;20052;-65
2021/03/18 03:47:06;;;;;;;1.50;0.60;;;;;;;16.05;28.52;100983.84;5016081;28;20136;-64
2021/03/18 03:49:34;;;;;;;0.50;0.50;;;;;;;15.96;28.44;100960.31;5016251;28;20046;-67
2021/03/18 03:52:14;;;;;;;2.80;0.60;;;;;;;15.98;28.33;100980.59;5017616;28;20053;-66
2021/03/18 03:54:48;;;;;;;1.75;0.40;;;;;;;15.96;28.33;100977.22;5014493;28;20045;-68
2021/03/18 03:57:23;;;;;;;0.40;0.40;;;;;;;15.87;28.22;100966.66;5020350;28;20380;-74
2021/03/18 03:59:50;;;;;;;1.63;0.63;;;;;;;15.54;28.24;100911.41;5019478;28;20073;-68
2021/03/18 04:02:17;;;;;;;0.70;0.50;;;;;;;15.98;28.25;100972.13;5018119;28;20042;-67
2021/03/18 04:04:49;;;;;;;0.53;0.53;;;;;;;15.84;28.21;100963.63;5012889;28;20509;-67
2021/03/18 04:07:29;;;;;;;0.80;0.50;;;;;;;15.84;28.20;100975.72;5016813;28;20046;-67
2021/03/18 04:09:59;;;;;;;0.90;0.60;;;;;;;15.80;28.13;100983.13;5021341;28;20049;-67
2021/03/18 04:12:31;;;;;;;0.55;0.50;;;;;;;15.87;28.02;100989.19;5013226;28;20041;-68
2021/03/18 04:15:03;;;;;;;0.70;0.50;;;;;;;15.79;28.09;100958.06;5020662;28;20054;-66
2021/03/18 04:17:32;;;;;;;0.63;0.50;;;;;;;15.91;27.92;100983.78;5018318;28;20550;-67
2021/03/18 04:20:01;;;;;;;;;;;;;;;15.73;28.10;100981.84;5016820;28;20050;-65
2021/03/18 04:22:29;;;;;;;0.83;0.50;;;;;;;15.77;28.01;100985.72;5020429;28;20359;-72
2021/03/18 04:24:58;;;;;;;1.00;0.60;;;;;;;15.65;28.15;100981.31;5019368;28;20053;-73
2021/03/18 04:27:26;;;;;;;0.95;0.60;;;;;;;15.69;28.02;100992.00;5023879;28;20050;-73
2021/03/18 04:29:54;;;;;;;0.97;0.87;;;;;;;15.50;28.04;100972.28;5017414;28;20398;-73
2021/03/18 04:32:21;;;;;;;0.53;0.50;;;;;;;15.67;28.15;100995.13;5014426;28;20411;-73
2021/03/18 04:34:53;;;;;;;1.83;0.80;;;;;;;15.67;28.07;101005.56;5016308;28;20050;-66
2021/03/18 04:37:20;;;;;;;1.17;0.70;;;;;;;15.61;28.17;101010.38;5020214;28;20132;-65
2021/03/18 04:39:48;;;;;;;3.33;1.17;;;;;;;15.51;28.30;101021.78;5013107;28;20042;-63
2021/03/18 04:42:16;;;;;;;2.43;0.67;;;;;;;15.22;28.45;100999.41;5015128;28;20052;-65
2021/03/18 04:44:44;;;;;;;1.37;1.27;;;;;;;15.20;28.62;101013.75;5019466;28;20426;-64
2021/03/18 04:47:14;;;;;;;1.47;0.57;;;;;;;15.06;28.71;100995.94;5015692;28;20545;-65
2021/03/18 04:49:45;;;;;;;3.50;0.67;;;;;;;15.18;28.83;100999.16;5017443;28;20487;-65
2021/03/18 04:52:16;;;;;;;0.57;0.50;;;;;;;15.22;28.65;101017.13;5021381;28;20594;-63
2021/03/18 04:54:43;;;;;;;3.77;0.57;;;;;;;15.00;28.86;101012.00;5021278;28;20046;-69
2021/03/18 04:57:11;;;;;;;0.80;0.57;;;;;;;14.84;29.22;101010.53;5006177;28;20050;-65
2021/03/18 04:59:41;;;;;;;0.70;0.60;;;;;;;14.41;29.13;100943.75;5014891;28;20053;-66
2021/03/18 05:02:09;;;;;;;0.70;0.70;;;;;;;14.80;29.30;101015.91;5019174;28;20403;-67
2021/03/18 05:04:37;;;;;;;2.23;0.60;;;;;;;14.60;29.28;101000.09;5012841;28;20304;-65
2021/03/18 05:07:04;;;;;;;2.00;1.00;;;;;;;14.84;29.16;101018.97;5017470;28;20414;-66
2021/03/18 05:09:31;;;;;;;1.27;0.70;;;;;;;14.98;29.18;101016.28;5017636;28;20049;-66
2021/03/18 05:11:57;;;;;;;1.17;0.70;;;;;;;14.96;28.87;100996.06;5012620;28;20049;-65
2021/03/18 05:14:27;;;;;;;1.80;1.20;;;;;;;14.78;28.74;100970.38;5014260;28;20076;-67
2021/03/18 05:16:54;;;;;;;0.70;0.45;;;;;;;15.17;28.67;101034.03;5014344;28;20053;-66
2021/03/18 05:19:22;;;;;;;3.57;0.90;;;;;;;14.97;29.00;101025.84;5015145;28;20103;-65
2021/03/18 05:21:49;;;;;;;0.93;0.90;;;;;;;14.93;29.28;101029.25;5013103;28;20128;-64
2021/03/18 05:24:17;;;;;;;1.30;0.60;;;;;;;14.78;29.16;101022.97;5021747;28;20056;-65
2021/03/18 05:26:43;;;;;;;0.60;0.50;;;;;;;14.52;29.36;101030.81;5018166;28;20057;-65
2021/03/18 05:29:12;;;;;;;4.70;0.83;;;;;;;14.39;29.47;101024.72;5018679;28;20042;-65
2021/03/18 05:31:39;;;;;;;1.27;0.60;;;;;;;14.33;29.51;101011.84;5019270;28;20491;-64
2021/03/18 05:34:05;;;;;;;0.53;0.40;;;;;;;14.21;29.60;101025.44;5017750;28;20057;-68
2021/03/18 05:36:32;;;;;;;0.30;0.30;;;;;;;14.34;29.39;101026.72;5018987;28;20077;-68
2021/03/18 05:38:59;;;;;;;0.40;0.40;;;;;;;14.16;29.77;101000.19;5024977;28;20073;-70
2021/03/18 05:41:26;;;;;;;0.57;0.40;;;;;;;14.12;29.78;101027.19;5013958;28;20083;-66
2021/03/18 05:43:53;;;;;;;1.60;0.30;;;;;;;13.82;29.92;101006.63;5010759;28;20543;-72
2021/03/18 05:46:19;;;;;;;0.30;0.30;;;;;;;13.75;30.06;101006.13;5019698;28;20052;-68
2021/03/18 05:48:47;;;;;;;0.30;0.30;;;;;;;13.90;30.11;101027.63;5020680;28;20042;-68
2021/03/18 05:51:18;;;;;;;0.43;0.37;;;;;;;13.88;30.14;101036.34;5015638;28;20469;-66
2021/03/18 05:53:49;;;;;;;1.13;0.60;;;;;;;13.95;29.91;101017.22;5022194;28;20052;-66
2021/03/18 05:56:18;;;;;;;0.33;0.33;;;;;;;13.79;29.97;101012.00;5022004;28;20045;-68
2021/03/18 05:58:46;;;;;;;0.67;0.40;;;;;;;13.95;30.09;101020.03;5016796;28;20441;-69
2021/03/18 06:01:13;;;;;;;0.83;0.53;;;;;;;13.76;30.31;101007.78;5018048;28;20140;-67
2021/03/18 06:03:41;;;;;;;0.40;0.40;;;;;;;13.90;30.17;101031.28;5018768;28;20125;-69
2021/03/18 06:06:09;;;;;;;0.37;0.37;;;;;;;13.83;30.28;101036.38;5011501;28;20145;-70
2021/03/18 06:08:37;;;;;;;0.30;0.30;;;;;;;13.73;30.65;101036.44;5014981;28;20052;-68
2021/03/18 06:11:08;;;;;;;0.30;0.30;;;;;;;13.61;30.75;101033.16;5012390;28;20143;-68
2021/03/18 06:13:36;;;;;;;0.47;0.47;;;;;;;13.54;30.93;101038.22;5015031;28;20077;-70
2021/03/18 06:16:03;;;;;;;1.07;0.87;;;;;;;13.50;31.20;101033.22;5020108;28;20132;-70
2021/03/18 06:18:32;;;;;;;2.80;1.37;;;;;;;13.56;31.20;101027.56;5023832;28;20152;-70
2021/03/18 06:21:02;;;;;;;3.03;1.03;;;;;;;13.52;31.35;101028.13;5028109;28;20046;-67
2021/03/18 06:23:28;;;;;;;0.20;0.20;;;;;;;13.22;31.87;101028.25;5017962;28;20441;-67
2021/03/18 06:25:55;;;;;;;0.37;0.37;;;;;;;12.97;31.65;100962.75;5022403;28;20490;-69
2021/03/18 06:28:32;;;;;;;0.53;0.47;;;;;;;13.33;31.69;101029.91;5018364;28;20088;-68
2021/03/18 06:31:14;;;;;;;1.70;0.90;;;;;;;13.32;31.86;101022.63;5022380;28;20568;-62
2021/03/18 06:33:43;;;;;;;0.40;0.40;;;;;;;13.27;31.82;101017.06;5022330;28;20459;-63
2021/03/18 06:36:28;;;;;;;1.07;0.60;;;;;;;13.40;31.85;101029.59;5020010;28;20770;-68
2021/03/18 06:39:05;;;;;;;0.80;0.80;;;;;;;13.43;31.95;101032.66;5020869;28;20046;-66
2021/03/18 06:41:37;;;;;;;0.23;0.23;;;;;;;13.27;32.06;101020.69;5019751;28;20303;-65
2021/03/18 06:44:05;;;;;;;0.20;0.20;;;;;;;13.05;32.75;101029.44;5025139;28;20049;-59
2021/03/18 06:46:32;;;;;;;0.50;0.50;;;;;;;12.83;32.98;101000.91;5018226;28;20669;-60
2021/03/18 06:49:10;;;;;;;0.47;0.40;;;;;;;12.32;33.64;100957.03;5013572;28;20042;-59
2021/03/18 06:51:37;;;;;;;0.40;0.40;;;;;;;12.72;33.83;101022.53;5017821;28;20129;-60
2021/03/18 06:54:18;;;;;;;0.77;0.50;;;;;;;12.41;34.60;101018.06;5020972;28;20084;-61
2021/03/18 06:56:58;;;;;;;1.20;0.70;;;;;;;12.28;35.06;101002.72;5018760;28;20074;-58
2021/03/18 06:59:30;;;;;;;0.90;0.50;;;;;;;12.19;35.49;101019.22;5028137;28;20046;-61
2021/03/18 07:02:13;;;;;;;0.40;0.40;;;;;;;12.14;35.66;101018.41;5019733;28;20566;-59
2021/03/18 07:04:48;;;;;;;0.40;0.40;;;;;;;12.33;35.45;101025.09;5026710;28;20464;-60
2021/03/18 07:07:16;;;;;;;0.30;0.30;;;;;;;12.42;35.22;101026.22;5021077;28;20189;-59
2021/03/18 07:09:48;;;;;;;0.60;0.60;;;;;;;12.52;35.24;101028.16;5002606;28;20053;-59
2021/03/18 07:12:17;;;;;;;0.80;0.80;;;;;;;12.60;35.07;101021.97;5015745;28;20140;-61
2021/03/18 07:14:47;;;;;;;0.40;0.40;;;;;;;12.69;35.11;101025.06;5018699;28;20053;-60
2021/03/18 07:17:18;;;;;;;0.35;0.35;;;;;;;12.86;34.71;101005.97;5018948;28;20076;-60
2021/03/18 07:19:45;;;;;;;2.13;0.67;;;;;;;13.01;34.68;101019.91;5024375;28;20132;-61
2021/03/18 07:22:17;;;;;;;0.83;0.67;;;;;;;13.10;34.84;101022.97;5006222;28;20197;-59
2021/03/18 07:24:43;;;;;;;1.00;0.90;;;;;;;13.20;34.76;101022.09;5016292;28;20196;-60
2021/03/18 07:27:15;;;;;;;4.33;0.60;;;;;;;13.41;34.57;101026.53;5018324;28;20491;-60
2021/03/18 07:29:44;;;;;;;1.73;1.13;;;;;;;13.46;34.70;101023.69;5022957;28;20042;-59
2021/03/18 07:32:11;;;;;;;1.90;0.83;;;;;;;13.61;34.42;101019.97;5021638;28;20038;-61
2021/03/18 07:34:39;;;;;;;3.13;0.80;;;;;;;13.75;34.21;101008.94;5013375;28;20049;-62
2021/03/18 07:37:08;;;;;;;0.57;0.50;;;;;;;13.89;34.21;101018.38;5017533;28;20056;-61
2021/03/18 07:39:38;;;;;;;1.20;1.10;;;;;;;13.88;34.05;101005.47;5021713;28;20126;-60
2021/03/18 07:42:07;;;;;;;2.30;1.07;;;;;;;14.39;33.60;101001.38;5012347;28;20069;-61
2021/03/18 07:44:36;;;;;;;1.20;1.00;;;;;;;14.78;33.15;101023.81;5015018;28;20253;-63
2021/03/18 07:47:04;;;;;;;0.73;0.70;;;;;;;15.02;32.98;101022.97;5016460;28;20070;-61
2021/03/18 07:49:46;;;;;;;1.70;1.17;;;;;;;15.25;32.56;101016.50;5024284;28;20445;-60
2021/03/18 07:52:26;;;;;;;0.67;0.60;;;;;;;15.34;32.22;101025.94;5022688;28;20476;-60
2021/03/18 07:54:59;;;;;;;2.03;1.00;;;;;;;15.68;32.13;101029.75;5014335;28;20101;-60
2021/03/18 07:57:39;;;;;;;3.10;1.03;;;;;;;15.82;31.72;101017.41;5015712;28;20108;-60
2021/03/18 08:00:16;;;;;;;1.58;1.17;;;;;;;16.16;31.40;101023.94;5008006;28;20068;-60
2021/03/18 08:02:42;;;;;;;0.70;0.70;;;;;;;16.24;31.45;101023.25;5014720;28;20546;-60
2021/03/18 08:05:32;;;;;;;2.60;0.93;;;;;;;16.21;30.95;101010.63;5021974;28;20510;-58
2021/03/18 08:07:58;;;;;;;2.43;1.33;;;;;;;15.96;31.37;101025.09;5020583;28;20494;-60
2021/03/18 08:10:24;;;;;;;3.67;1.40;;;;;;;16.21;31.47;101027.53;5013083;28;20041;-60
2021/03/18 08:12:56;;;;;;;0.67;0.67;;;;;;;15.94;31.30;100999.25;5017404;28;20056;-62
2021/03/18 08:15:29;;;;;;;1.10;0.90;;;;;;;15.95;31.42;101027.09;5005408;28;20042;-60
2021/03/18 08:18:16;;;;;;;1.53;0.50;;;;;;;15.81;31.58;101020.56;5017397;28;20133;-61
2021/03/18 08:20:43;;;;;;;1.53;1.10;;;;;;;15.97;31.59;101046.53;5000289;28;20490;-59
2021/03/18 08:23:24;;;;;;;2.00;1.43;;;;;;;16.04;31.49;101052.59;5012061;28;20440;-60
2021/03/18 08:25:55;;;;;;;3.63;1.73;;;;;;;16.27;31.22;101050.81;5012661;28;20554;-59
2021/03/18 08:28:55;;;;;;;1.13;0.80;;;;;;;16.45;30.96;101035.03;5014630;28;20135;-61
2021/03/18 08:31:25;;;;;;;0.85;0.85;;;;;;;16.66;30.65;101036.34;5012653;28;20189;-62
2021/03/18 08:33:55;;;;;;;2.80;1.00;;;;;;;16.99;30.29;101056.06;5010797;28;20042;-60
2021/03/18 08:36:25;;;;;;;1.33;1.10;;;;;;;16.69;29.91;101009.50;5012169;28;20092;-61
2021/03/18 08:39:12;;;;;;;0.70;0.55;;;;;;;16.72;30.12;101043.56;5012392;28;20561;-60
2021/03/18 08:41:40;;;;;;;0.73;0.73;;;;;;;16.63;30.28;101051.06;5015708;28;20129;-59
2021/03/18 08:44:20;;;;;;;0.80;0.80;;;;;;;16.85;30.03;101041.94;5017368;28;20128;-60
2021/03/18 08:46:59;;;;;;;3.25;1.02;;;;;;;17.09;29.83;101041.75;5021345;28;20050;-62
2021/03/18 08:49:38;;;;;;;1.20;0.80;;;;;;;17.30;29.95;101047.84;5014441;28;20042;-59
2021/03/18 08:52:13;;;;;;;5.53;1.70;;;;;;;17.58;29.42;101042.16;5011360;28;20125;-62
2021/03/18 08:54:39;;;;;;;2.93;1.13;;;;;;;17.59;29.26;101046.66;5015618;28;20095;-59
2021/03/18 08:57:08;;;;;;;0.87;0.80;;;;;;;17.62;29.14;101032.75;5015964;28;20516;-61
2021/03/18 08:59:36;;;;;;;1.17;0.87;;;;;;;17.48;29.24;101054.50;5015470;28;20099;-60
2021/03/18 09:02:09;;;;;;;1.17;0.87;;;;;;;17.40;29.25;101043.94;5019547;28;20057;-61
2021/03/18 09:04:37;;;;;;;1.43;1.33;;;;;;;17.34;29.15;101048.03;5012946;28;20130;-61
2021/03/18 09:07:09;;;;;;;3.37;2.10;;;;;;;17.61;29.09;101035.88;5012165;28;20388;-59
2021/03/18 09:09:38;;;;;;;1.30;0.70;;;;;;;17.80;29.00;101038.59;5020157;28;20053;-59
2021/03/18 09:12:07;;;;;;;2.23;1.43;;;;;;;18.01;28.68;101045.44;5013089;28;20137;-59
2021/03/18 09:14:38;;;;;;;6.38;1.35;;;;;;;18.26;28.42;101006.41;5012504;28;20050;-61
2021/03/18 09:17:10;;;;;;;4.60;1.93;;;;;;;19.15;27.44;101023.25;5017802;28;20482;-61
2021/03/18 09:19:38;;;;;;;2.00;1.10;;;;;;;19.58;26.68;101025.34;5021775;28;20049;-60
2021/03/18 09:22:05;;;;;;;4.60;1.50;;;;;;;20.08;26.50;101015.63;5017217;28;20151;-60
2021/03/18 09:24:39;;;;;;;1.23;1.00;;;;;;;20.39;25.97;101011.75;5015405;28;20049;-59
2021/03/18 09:27:14;;;;;;;2.33;2.05;;;;;;;20.45;25.77;101021.78;5014928;28;20466;-59
2021/03/18 09:29:42;;;;;;;4.28;2.17;;;;;;;20.73;25.84;101010.88;5016205;28;20137;-60
2021/03/18 09:32:13;;;;;;;1.77;1.35;;;;;;;20.96;25.08;101040.72;5016730;28;20123;-60
2021/03/18 09:34:43;;;;;;;2.35;1.50;;;;;;;21.19;24.77;101031.91;5012236;28;20393;-60
2021/03/18 09:37:34;;;;;;;4.93;1.95;;;;;;;21.55;24.24;101022.09;5019210;28;20048;-61
2021/03/18 09:40:02;;;;;;;3.53;1.65;;;;;;;21.85;23.71;101035.09;5014570;28;20057;-61
2021/03/18 09:42:28;;;;;;;3.22;1.55;;;;;;;21.90;23.83;101039.72;5017967;28;20482;-59
2021/03/18 09:44:54;;;;;;;2.53;1.50;;;;;;;22.07;23.28;101039.59;5015416;28;20140;-59
2021/03/18 09:47:20;;;;;;;3.80;1.85;;;;;;;22.64;23.41;101043.81;5020712;28;20065;-61
2021/03/18 09:49:51;;;;;;;5.85;1.60;;;;;;;23.52;22.93;101033.03;5026884;28;20546;-60
2021/03/18 09:52:27;;;;;;;5.10;1.95;;;;;;;24.04;22.33;101030.28;5011758;28;20060;-60
2021/03/18 09:54:58;;;;;;;6.55;2.67;;;;;;;24.21;22.01;101036.88;5013449;28;20046;-60
2021/03/18 09:57:29;;;;;;;6.90;1.80;;;;;;;24.65;22.41;101026.38;5020423;28;20141;-61
2021/03/18 09:59:56;;;;;;;6.55;2.42;;;;;;;24.61;21.70;101019.72;5011349;28;20107;-60
2021/03/18 10:02:28;;;;;;;3.60;1.92;;;;;;;24.54;21.74;101030.94;5010233;28;20510;-60
2021/03/18 10:04:55;;;;;;;5.13;1.88;;;;;;;24.34;21.16;101027.91;5017945;28;20050;-60
2021/03/18 10:07:29;;;;;;;3.78;1.95;;;;;;;24.70;21.02;101025.28;5014554;28;20058;-59
2021/03/18 10:09:56;;;;;;;2.70;1.80;;;;;;;24.89;20.74;101021.69;5006914;28;20106;-59
2021/03/18 10:12:25;;;;;;;3.78;2.15;;;;;;;25.38;20.81;101021.38;5018197;28;20438;-60
2021/03/18 10:14:57;;;;;;;2.83;1.70;;;;;;;26.07;21.08;101027.53;5021347;28;20554;-60
2021/03/18 10:17:41;;;;;;;3.63;2.22;;;;;;;25.97;20.24;101018.31;5013292;28;20602;-58
2021/03/18 10:20:25;;;;;;;1.60;1.50;;;;;;;25.72;19.68;101017.72;5014269;28;20108;-61
2021/03/18 10:23:04;;;;;;;5.00;2.40;;;;;;;25.57;20.01;100998.56;5009198;28;20077;-59
2021/03/18 10:25:33;;;;;;;3.08;1.60;;;;;;;25.85;19.86;100986.19;5014573;28;20048;-60
2021/03/18 10:28:11;;;;;;;5.97;2.10;;;;;;;26.03;19.67;100973.06;5015198;28;20042;-59
2021/03/18 10:30:42;;;;;;;3.30;1.75;;;;;;;26.00;19.18;100985.28;5009378;28;20046;-60
2021/03/18 10:33:15;;;;;;;3.08;1.83;;;;;;;25.46;18.49;100995.44;5015938;28;20063;-59
2021/03/18 10:36:04;;;;;;;2.78;1.50;;;;;;;25.65;18.82;100982.41;5019305;28;20132;-60
2021/03/18 10:38:36;;;;;;;2.67;1.60;;;;;;;26.24;18.74;100984.97;5015681;28;20097;-59
2021/03/18 10:41:06;;;;;;;2.33;1.65;;;;;;;26.23;18.30;100976.78;5021898;28;20048;-60
2021/03/18 10:43:36;;;;;;;4.38;1.42;;;;;;;26.31;18.51;100984.28;5015486;28;20045;-58
2021/03/18 10:46:06;;;;;;;2.38;1.50;;;;;;;26.44;17.96;100979.25;5017372;28;20058;-62
2021/03/18 10:48:36;;;;;;;2.65;1.55;;;;;;;26.85;18.43;100965.31;5017788;28;20048;-60
2021/03/18 10:51:13;;;;;;;3.25;1.30;;;;;;;26.79;17.95;100984.03;5017535;28;20053;-60
2021/03/18 10:53:41;;;;;;;3.30;1.70;;;;;;;27.09;17.62;100979.25;5013566;28;20136;-60
2021/03/18 10:56:14;;;;;;;2.67;1.92;;;;;;;27.25;17.64;100958.22;5016955;28;20045;-60
2021/03/18 10:58:41;;;;;;;6.10;2.15;;;;;;;27.87;17.10;100968.25;5015691;28;20509;-61
2021/03/18 11:01:21;;;;;;;1.90;1.50;;;;;;;28.03;16.67;100979.50;5015522;28;20045;-61
2021/03/18 11:03:48;;;;;;;1.70;1.45;;;;;;;27.56;15.87;100986.63;5008734;28;20077;-60
2021/03/18 11:06:21;;;;;;;2.15;1.38;;;;;;;27.11;16.06;100965.38;5022349;28;20448;-61
2021/03/18 11:08:52;;;;;;;3.95;1.75;;;;;;;26.73;16.60;100968.34;5020913;28;20140;-60
2021/03/18 11:11:26;;;;;;;2.95;1.60;;;;;;;27.12;16.76;100974.81;5017540;28;20042;-60
2021/03/18 11:14:07;;;;;;;5.20;1.67;;;;;;;26.80;15.96;100968.47;5022844;28;20483;-60
2021/03/18 11:16:33;;;;;;;2.75;1.98;;;;;;;27.04;16.63;100962.38;5018016;28;20088;-59
2021/03/18 11:19:03;;;;;;;2.72;1.50;;;;;;;27.57;16.63;100953.00;5023124;28;20042;-61
2021/03/18 11:21:36;;;;;;;2.70;1.65;;;;;;;28.19;16.70;100950.59;5016380;28;20046;-59
2021/03/18 11:24:09;;;;;;;2.33;1.80;;;;;;;28.32;16.52;100951.16;5019662;28;20060;-59
2021/03/18 11:26:38;;;;;;;3.35;2.42;;;;;;;29.14;15.92;100945.47;5017666;28;20049;-59
2021/03/18 11:29:15;;;;;;;3.47;1.90;;;;;;;29.72;16.21;100947.56;5018285;28;20132;-61
2021/03/18 11:31:49;;;;;;;3.25;2.25;;;;;;;30.43;15.25;100947.88;5019153;28;20038;-60
2021/03/18 11:34:22;;;;;;;5.47;2.28;;;;;;;30.60;14.99;100951.19;5021054;28;20157;-60
2021/03/18 11:36:51;;;;;;;5.20;2.20;;;;;;;30.40;15.15;100945.81;5019634;28;20127;-59
2021/03/18 11:39:18;;;;;;;;;;;;;;;29.61;16.25;100941.72;5018124;28;20104;-60
2021/03/18 11:41:47;;;;;;;2.28;1.67;;;;;;;30.19;15.34;100937.94;5020545;28;19921;-61
2021/03/18 11:44:14;;;;;;;2.55;1.63;;;;;;;30.25;14.91;100928.88;5022512;28;20054;-60